logo
Search for airport 
image banner adimage banner adimage banner ad
image banner ad

ED2078 - Gruenstadt Kkrhs.

Located in Gruenstadt, Germany

ICAO - , IATA -

Data provided by Airmate  

General information

Coordinates: N49°33'47" E8°9'30"
Elevation is 665 feet MSL.
 
View others Airports in Rhineland-Palatinate

Operational data

Special qualification required
Current time UTC:
Current local time:
Weather at : EDFM - Mannheim City ( 28 km )
METAR: EDFM 231650Z 21008KT 180V250 9999 VCSH SCT027 BKN033 22/18 Q1017
TAF: TAF EDFM 231400Z 2315/2321 23009KT 9999 BKN040 PROB30 TEMPO 2315/2318 23015G25KT 4000 TSRA BKN025CB
View NOTAMs / SUP AIP / TFR affecting this airport [VIEW]
Communications frequencies: [VIEW]

Runways:

Airport contact information

Address: Gruenstadt Germany

Satellite view of ED2078